Time;durP1;ratioP1;P1;durP2;ratioP2;P2;SDS_P1;SDS_P2;PMS_P1;PMS_P2;Temp;Humidity;BMP_temperature;BMP_pressure;BME280_temperature;BME280_humidity;BME280_pressure;Samples;Min_cycle;Max_cycle;Signal;HPM_P1;HPM_P2
2022/08/16 00:00:48;;;;;;;11.05;8.82;;;28.20;63.00;;;;;;5032111;28;20061;-70
2022/08/16 00:03:16;;;;;;;10.73;8.70;;;28.20;63.10;;;;;;5031974;28;20112;-71
2022/08/16 00:05:43;;;;;;;13.05;8.50;;;28.20;63.20;;;;;;5043567;28;20035;-71
2022/08/16 00:08:09;;;;;;;11.98;8.43;;;28.20;63.10;;;;;;5050534;28;20064;-71
2022/08/16 00:10:36;;;;;;;10.63;8.75;;;28.10;63.30;;;;;;5051971;28;20032;-71
2022/08/16 00:13:06;;;;;;;12.00;8.50;;;28.10;62.90;;;;;;5051825;28;20474;-71
2022/08/16 00:15:38;;;;;;;11.98;7.70;;;28.30;63.50;;;;;;5067333;28;20033;-71
2022/08/16 00:18:05;;;;;;;10.27;7.18;;;28.10;63.60;;;;;;5051883;28;20032;-70
2022/08/16 00:20:32;;;;;;;11.50;7.00;;;28.20;63.40;;;;;;5051901;28;20036;-71
2022/08/16 00:22:59;;;;;;;9.70;7.03;;;28.20;63.60;;;;;;5051843;28;20036;-71
2022/08/16 00:25:25;;;;;;;6.68;5.85;;;28.20;63.10;;;;;;5050387;28;20036;-72
2022/08/16 00:27:52;;;;;;;6.35;4.57;;;28.20;63.50;;;;;;5051376;28;20123;-70
2022/08/16 00:30:19;;;;;;;6.30;4.38;;;28.10;63.60;;;;;;5051640;28;20036;-70
2022/08/16 00:32:49;;;;;;;5.95;4.28;;;28.20;63.10;;;;;;5051820;28;20025;-70
2022/08/16 00:35:18;;;;;;;7.40;4.38;;;28.20;63.50;;;;;;5051747;28;20049;-70
2022/08/16 00:37:45;;;;;;;4.53;3.78;;;28.20;63.50;;;;;;5048996;28;20064;-69
2022/08/16 00:40:14;;;;;;;5.65;4.57;;;28.20;63.50;;;;;;5050176;28;20797;-71
2022/08/16 00:42:41;;;;;;;4.53;4.13;;;28.10;63.40;;;;;;5051019;28;20037;-71
2022/08/16 00:45:21;;;;;;;4.30;3.80;;;28.20;63.40;;;;;;5059036;28;20039;-71
2022/08/16 00:47:47;;;;;;;4.80;4.30;;;28.20;63.40;;;;;;5049835;28;20505;-70
2022/08/16 00:50:13;;;;;;;8.18;4.07;;;28.20;63.00;;;;;;5051510;28;20060;-71
2022/08/16 00:52:41;;;;;;;6.80;3.13;;;28.10;63.40;;;;;;5051187;28;20033;-71
2022/08/16 00:55:07;;;;;;;4.25;3.72;;;28.20;63.30;;;;;;5054052;28;20128;-70
2022/08/16 00:57:35;;;;;;;5.82;3.78;;;28.10;63.20;;;;;;5069891;28;20049;-70
2022/08/16 01:00:04;;;;;;;3.92;3.30;;;28.10;63.20;;;;;;5037630;28;20359;-70
2022/08/16 01:02:30;;;;;;;6.35;4.50;;;28.10;63.10;;;;;;5055450;28;20040;-71
2022/08/16 01:04:56;;;;;;;6.60;4.32;;;28.10;63.30;;;;;;5054429;28;20029;-71
2022/08/16 01:07:22;;;;;;;6.20;4.00;;;28.20;63.30;;;;;;5033941;28;20186;-71
2022/08/16 01:09:48;;;;;;;3.72;3.42;;;28.20;63.30;;;;;;5035505;28;20489;-71
2022/08/16 01:12:15;;;;;;;5.63;4.30;;;28.10;63.30;;;;;;5035687;28;20498;-71
2022/08/16 01:14:50;;;;;;;4.25;3.85;;;28.10;63.20;;;;;;5051527;28;20036;-71
2022/08/16 01:17:18;;;;;;;5.20;3.72;;;28.10;63.20;;;;;;5054143;28;20025;-70
2022/08/16 01:19:51;;;;;;;4.97;3.55;;;28.10;63.20;;;;;;5054875;28;20458;-69
2022/08/16 01:22:51;;;;;;;5.53;3.30;;;28.20;63.20;;;;;;5055285;28;20167;-71
2022/08/16 01:25:27;;;;;;;4.30;3.60;;;28.10;63.20;;;;;;5053889;28;20351;-70
2022/08/16 01:27:56;;;;;;;4.10;3.70;;;28.20;63.00;;;;;;5054778;28;20440;-71
2022/08/16 01:30:29;;;;;;;5.35;3.67;;;28.20;62.50;;;;;;5054793;28;20036;-71
2022/08/16 01:32:59;;;;;;;4.35;3.95;;;28.10;63.00;;;;;;5053685;28;20041;-70
2022/08/16 01:35:43;;;;;;;8.02;4.20;;;28.10;63.00;;;;;;5053401;28;20033;-71
2022/08/16 01:38:21;;;;;;;5.60;4.03;;;28.20;63.00;;;;;;5033111;28;20037;-70
2022/08/16 01:40:51;;;;;;;5.82;3.63;;;28.30;62.10;;;;;;5051133;28;20042;-71
2022/08/16 01:43:19;;;;;;;3.33;2.92;;;28.10;62.10;;;;;;5065958;28;20508;-71
2022/08/16 01:45:45;;;;;;;4.18;3.33;;;28.00;62.10;;;;;;5072909;28;20037;-70
2022/08/16 01:48:13;;;;;;;7.32;4.25;;;28.00;62.90;;;;;;5066184;28;20109;-71
2022/08/16 01:50:44;;;;;;;3.78;3.47;;;28.00;62.60;;;;;;5053215;28;20021;-71
2022/08/16 01:53:11;;;;;;;4.72;3.25;;;28.10;63.00;;;;;;5053469;28;20047;-71
2022/08/16 01:55:55;;;;;;;3.42;3.13;;;28.10;63.00;;;;;;5053328;28;20071;-70
2022/08/16 01:58:22;;;;;;;5.38;3.78;;;28.00;63.00;;;;;;5052886;28;20037;-71
2022/08/16 02:00:49;;;;;;;3.45;3.15;;;28.10;63.00;;;;;;5068693;28;20045;-71
2022/08/16 02:03:15;;;;;;;3.67;2.72;;;28.00;62.90;;;;;;5053084;28;20040;-70
2022/08/16 02:05:42;;;;;;;3.20;2.90;;;28.00;62.80;;;;;;5052216;28;20033;-70
2022/08/16 02:08:08;;;;;;;4.15;3.10;;;28.00;62.90;;;;;;5052802;28;20044;-71
2022/08/16 02:10:37;;;;;;;5.10;3.15;;;28.00;62.80;;;;;;5052941;28;20076;-71
2022/08/16 02:13:05;;;;;;;6.95;3.03;;;28.00;62.90;;;;;;5052759;28;20478;-71
2022/08/16 02:15:35;;;;;;;4.50;3.38;;;28.10;62.80;;;;;;5052841;28;20393;-70
2022/08/16 02:18:03;;;;;;;4.15;3.35;;;28.20;62.90;;;;;;5052735;28;20443;-70
2022/08/16 02:20:37;;;;;;;3.80;3.13;;;28.20;62.80;;;;;;5053995;28;20036;-70
2022/08/16 02:23:04;;;;;;;4.43;3.65;;;28.20;62.80;;;;;;5053145;28;20037;-70
2022/08/16 02:25:30;;;;;;;5.55;3.42;;;28.10;62.60;;;;;;5053558;28;20045;-71
2022/08/16 02:27:58;;;;;;;4.45;2.90;;;28.10;62.70;;;;;;5071349;28;20058;-71
2022/08/16 02:30:28;;;;;;;4.88;3.65;;;28.10;62.60;;;;;;5054400;28;20045;-70
2022/08/16 02:32:54;;;;;;;4.15;3.47;;;28.10;62.60;;;;;;5054517;28;20461;-70
2022/08/16 02:35:22;;;;;;;4.35;3.67;;;28.00;62.50;;;;;;5071503;28;20120;-71
2022/08/16 02:37:48;;;;;;;4.40;3.47;;;28.10;62.30;;;;;;5055370;28;20045;-71
2022/08/16 02:40:18;;;;;;;4.18;3.42;;;28.00;62.50;;;;;;5070061;28;20064;-70
2022/08/16 02:42:45;;;;;;;4.68;3.63;;;28.00;62.60;;;;;;5065004;28;20478;-70
2022/08/16 02:45:11;;;;;;;4.25;3.55;;;28.00;62.30;;;;;;5065718;28;20029;-71
2022/08/16 02:47:38;;;;;;;6.13;3.78;;;28.00;62.50;;;;;;5070953;28;20040;-71
2022/08/16 02:50:05;;;;;;;3.90;3.22;;;27.90;61.90;;;;;;5004694;28;20421;-70
2022/08/16 02:52:32;;;;;;;3.33;2.90;;;28.00;62.30;;;;;;5071027;28;20063;-71
2022/08/16 02:55:05;;;;;;;6.03;3.33;;;28.00;62.40;;;;;;5054353;28;20123;-71
2022/08/16 02:57:32;;;;;;;6.57;3.65;;;27.90;61.70;;;;;;5070575;28;20033;-71
2022/08/16 02:59:58;;;;;;;5.38;3.60;;;28.00;62.40;;;;;;5051776;28;20448;-70
2022/08/16 03:02:26;;;;;;;4.22;3.08;;;28.00;61.90;;;;;;5052099;28;20037;-71
2022/08/16 03:04:52;;;;;;;7.55;3.22;;;27.90;61.80;;;;;;5052220;28;20033;-71
2022/08/16 03:07:20;;;;;;;4.45;3.50;;;27.90;61.80;;;;;;5051571;28;20033;-71
2022/08/16 03:09:49;;;;;;;5.68;3.70;;;27.90;61.80;;;;;;5051833;28;20040;-71
2022/08/16 03:12:19;;;;;;;3.63;3.22;;;27.90;61.70;;;;;;5051701;28;20033;-70
2022/08/16 03:14:47;;;;;;;4.63;3.28;;;28.00;62.10;;;;;;5052097;28;20037;-71
2022/08/16 03:17:15;;;;;;;3.58;3.28;;;27.90;61.90;;;;;;5051537;28;20040;-71
2022/08/16 03:19:42;;;;;;;10.48;3.53;;;27.80;62.10;;;;;;5052977;28;20029;-71
2022/08/16 03:22:08;;;;;;;5.25;3.72;;;28.00;62.80;;;;;;5051887;28;20041;-71
2022/08/16 03:24:36;;;;;;;4.75;3.33;;;28.00;62.80;;;;;;5033594;28;20502;-70
2022/08/16 03:27:03;;;;;;;5.78;3.70;;;27.90;62.20;;;;;;5033606;28;20045;-71
2022/08/16 03:29:31;;;;;;;4.32;3.63;;;27.90;62.20;;;;;;5033237;28;20600;-70
2022/08/16 03:32:00;;;;;;;8.30;3.95;;;27.90;62.20;;;;;;5033768;28;20111;-70
2022/08/16 03:34:26;;;;;;;8.85;3.50;;;28.10;62.80;;;;;;5033478;28;20486;-71
2022/08/16 03:36:53;;;;;;;4.47;3.78;;;28.10;62.80;;;;;;5044760;28;20472;-71
2022/08/16 03:39:19;;;;;;;3.97;3.55;;;27.90;62.00;;;;;;5049353;28;20075;-70
2022/08/16 03:41:45;;;;;;;6.78;4.25;;;28.10;62.80;;;;;;5033072;28;20063;-70
2022/08/16 03:44:12;;;;;;;4.10;3.70;;;28.00;62.70;;;;;;5049679;28;20047;-71
2022/08/16 03:46:38;;;;;;;6.22;3.97;;;28.00;62.80;;;;;;5029580;28;20494;-71
2022/08/16 03:49:07;;;;;;;4.85;3.58;;;28.10;62.80;;;;;;5029754;28;20079;-70
2022/08/16 03:51:34;;;;;;;5.15;3.85;;;28.20;62.70;;;;;;5013578;28;20483;-70
2022/08/16 03:54:03;;;;;;;6.85;4.28;;;28.10;62.70;;;;;;5020930;28;20048;-70
2022/08/16 03:56:31;;;;;;;4.97;3.92;;;28.10;62.70;;;;;;5054527;28;20508;-70
2022/08/16 03:58:59;;;;;;;6.57;3.45;;;28.10;62.50;;;;;;5050882;28;20474;-75
2022/08/16 04:01:29;;;;;;;4.22;3.60;;;28.10;62.40;;;;;;5066463;28;20125;-73
2022/08/16 04:03:55;;;;;;;5.47;3.55;;;28.10;62.10;;;;;;5050907;28;20106;-72
2022/08/16 04:06:22;;;;;;;3.45;3.15;;;28.20;60.90;;;;;;5050515;28;20037;-71
2022/08/16 04:08:48;;;;;;;7.95;3.65;;;28.20;60.60;;;;;;5051115;28;20044;-72
2022/08/16 04:11:14;;;;;;;3.83;3.40;;;28.30;62.40;;;;;;5050512;28;20029;-71
2022/08/16 04:13:40;;;;;;;4.10;3.53;;;28.40;65.80;;;;;;5050744;28;20090;-72
2022/08/16 04:16:08;;;;;;;5.45;4.35;;;28.50;64.50;;;;;;5050538;28;20095;-72
2022/08/16 04:18:37;;;;;;;3.72;3.38;;;28.70;66.70;;;;;;5050470;28;20718;-72
2022/08/16 04:21:04;;;;;;;6.30;3.80;;;28.70;62.90;;;;;;5050796;28;20044;-71
2022/08/16 04:23:31;;;;;;;7.25;3.55;;;28.70;61.20;;;;;;5050379;28;20539;-72
2022/08/16 04:25:57;;;;;;;5.07;3.38;;;28.60;60.80;;;;;;5012977;28;20041;-72
2022/08/16 04:28:23;;;;;;;4.78;3.28;;;28.70;60.60;;;;;;5030555;28;20025;-74
2022/08/16 04:30:49;;;;;;;3.78;2.75;;;28.50;60.40;;;;;;5055447;28;20509;-74
2022/08/16 04:33:15;;;;;;;4.85;3.40;;;28.50;60.30;;;;;;5052423;28;20028;-72
2022/08/16 04:35:42;;;;;;;6.88;3.28;;;28.50;60.20;;;;;;5050226;28;20051;-71
2022/08/16 04:38:09;;;;;;;3.80;3.08;;;28.60;60.20;;;;;;5050397;28;20036;-72
2022/08/16 04:40:46;;;;;;;3.63;3.08;;;28.50;60.10;;;;;;5050165;28;20132;-71
2022/08/16 04:43:14;;;;;;;9.07;3.00;;;28.50;60.00;;;;;;5050239;28;20159;-71
2022/08/16 04:45:41;;;;;;;4.72;3.65;;;28.50;59.80;;;;;;5051553;28;20508;-70
2022/08/16 04:48:11;;;;;;;5.78;3.15;;;28.70;59.70;;;;;;5033929;28;20431;-70
2022/08/16 04:50:59;;;;;;;3.63;3.22;;;28.60;58.80;;;;;;5050044;28;20529;-70
2022/08/16 04:53:37;;;;;;;3.25;2.80;;;28.50;58.00;;;;;;5053599;28;20098;-73
2022/08/16 04:56:04;;;;;;;2.85;1.55;;;28.60;56.90;;;;;;5050986;28;20508;-70
2022/08/16 04:58:32;;;;;;;1.27;0.95;;;28.40;57.10;;;;;;5012251;28;20126;-71
2022/08/16 05:01:00;;;;;;;6.63;3.47;;;28.50;56.70;;;;;;5012498;28;20041;-71
2022/08/16 05:03:27;;;;;;;3.05;2.20;;;28.50;56.80;;;;;;5028904;28;20041;-71
2022/08/16 05:05:54;;;;;;;4.10;2.47;;;28.40;56.70;;;;;;5040953;28;20032;-71
2022/08/16 05:08:23;;;;;;;3.67;2.08;;;28.50;56.70;;;;;;5032398;28;20154;-72
2022/08/16 05:10:55;;;;;;;2.47;1.77;;;28.50;56.40;;;;;;5028762;28;20462;-72
2022/08/16 05:13:22;;;;;;;4.18;2.78;;;28.40;56.50;;;;;;5031070;28;20077;-71
2022/08/16 05:15:48;;;;;;;1.70;1.60;;;28.40;56.90;;;;;;5047692;28;20574;-72
2022/08/16 05:18:16;;;;;;;5.00;2.97;;;28.40;57.20;;;;;;5030815;28;20393;-71
2022/08/16 05:20:49;;;;;;;2.42;2.10;;;28.50;57.20;;;;;;5015002;28;20041;-72
2022/08/16 05:23:16;;;;;;;2.60;2.42;;;28.50;58.00;;;;;;4999358;28;20042;-77
2022/08/16 05:25:43;;;;;;;2.67;2.42;;;28.50;58.30;;;;;;5035589;28;20479;-75
2022/08/16 05:28:10;;;;;;;2.38;1.73;;;28.50;57.70;;;;;;5016890;28;20485;-74
2022/08/16 05:30:38;;;;;;;10.63;1.75;;;28.50;57.70;;;;;;5000568;28;20041;-73
2022/08/16 05:33:12;;;;;;;2.15;1.95;;;28.40;57.50;;;;;;5017203;28;20060;-71
2022/08/16 05:35:38;;;;;;;5.03;3.28;;;28.50;57.20;;;;;;5004449;28;20030;-71
2022/08/16 05:38:14;;;;;;;6.47;3.55;;;28.50;57.50;;;;;;5025285;28;20053;-70
2022/08/16 05:40:41;;;;;;;6.32;3.40;;;28.40;57.70;;;;;;5030484;28;20077;-71
2022/08/16 05:43:08;;;;;;;5.82;3.60;;;28.50;57.80;;;;;;5031904;28;20068;-73
2022/08/16 05:45:35;;;;;;;3.63;3.25;;;28.40;58.10;;;;;;5015376;28;20605;-71
2022/08/16 05:48:03;;;;;;;5.63;3.60;;;28.50;58.20;;;;;;5028200;28;20045;-73
2022/08/16 05:50:45;;;;;;;6.70;2.75;;;28.50;58.60;;;;;;5000803;28;20075;-72
2022/08/16 05:53:12;;;;;;;4.55;3.72;;;28.60;58.60;;;;;;5014286;28;20037;-73
2022/08/16 05:55:54;;;;;;;5.07;3.30;;;28.40;58.70;;;;;;5014129;28;20401;-74
2022/08/16 05:58:20;;;;;;;4.53;3.47;;;28.40;59.00;;;;;;5035997;28;20041;-73
2022/08/16 06:00:46;;;;;;;3.42;3.03;;;28.50;58.90;;;;;;5052093;28;20029;-72
2022/08/16 06:03:13;;;;;;;3.25;2.88;;;28.40;58.80;;;;;;5052256;28;20033;-71
2022/08/16 06:05:57;;;;;;;4.07;3.10;;;28.50;58.40;;;;;;5052294;28;20041;-72
2022/08/16 06:08:23;;;;;;;2.83;2.60;;;28.40;57.60;;;;;;5053020;28;20029;-71
2022/08/16 06:10:49;;;;;;;4.40;3.10;;;28.20;56.90;;;;;;5053103;28;20048;-71
2022/08/16 06:13:15;;;;;;;5.57;3.25;;;28.30;57.90;;;;;;5051484;28;20045;-70
2022/08/16 06:15:42;;;;;;;5.30;2.85;;;28.20;57.60;;;;;;5033228;28;20052;-70
2022/08/16 06:18:09;;;;;;;4.47;3.00;;;28.30;57.00;;;;;;5051149;28;20041;-70
2022/08/16 06:20:35;;;;;;;4.57;3.40;;;28.40;56.60;;;;;;4998539;28;20616;-72
2022/08/16 06:23:02;;;;;;;4.70;2.85;;;28.20;56.80;;;;;;5033504;28;20161;-74
2022/08/16 06:25:33;;;;;;;5.03;3.28;;;28.30;56.90;;;;;;5035307;28;20037;-71
2022/08/16 06:27:59;;;;;;;4.18;3.10;;;28.30;56.90;;;;;;5016328;28;20417;-72
2022/08/16 06:30:31;;;;;;;3.78;3.42;;;28.40;56.90;;;;;;5041246;28;20060;-71
2022/08/16 06:32:58;;;;;;;5.32;3.20;;;28.40;56.90;;;;;;5028025;28;20120;-72
2022/08/16 06:35:25;;;;;;;3.50;3.20;;;28.40;56.90;;;;;;5039012;28;20064;-73
2022/08/16 06:37:51;;;;;;;3.65;3.03;;;28.40;56.90;;;;;;5034273;28;20032;-73
2022/08/16 06:40:18;;;;;;;3.80;3.10;;;28.40;56.90;;;;;;5051119;28;20080;-73
2022/08/16 06:42:48;;;;;;;4.38;2.97;;;28.40;56.90;;;;;;5051371;28;20083;-73
2022/08/16 06:45:36;;;;;;;4.40;3.28;;;28.50;56.90;;;;;;5068924;28;20044;-74
2022/08/16 06:48:09;;;;;;;3.53;3.22;;;28.50;56.90;;;;;;5052089;28;20037;-75
2022/08/16 06:50:36;;;;;;;5.15;3.08;;;28.30;57.00;;;;;;5052088;28;20501;-76
2022/08/16 06:53:05;;;;;;;5.25;3.15;;;28.40;56.80;;;;;;5051766;28;20037;-75
2022/08/16 06:55:34;;;;;;;3.30;3.00;;;28.40;56.60;;;;;;5052336;28;20090;-75
2022/08/16 06:58:01;;;;;;;5.47;2.92;;;28.20;56.00;;;;;;5051753;28;20110;-74
2022/08/16 07:00:28;;;;;;;4.22;3.13;;;28.20;56.20;;;;;;5035661;28;20527;-74
2022/08/16 07:03:06;;;;;;;4.65;2.95;;;28.30;55.90;;;;;;5035385;28;20507;-74
2022/08/16 07:05:32;;;;;;;5.55;3.10;;;28.00;56.50;;;;;;5068399;28;20025;-72
2022/08/16 07:08:12;;;;;;;3.20;2.90;;;28.20;56.30;;;;;;5068355;28;20482;-73
2022/08/16 07:10:40;;;;;;;2.92;1.90;;;28.10;56.50;;;;;;5051985;28;20464;-74
2022/08/16 07:13:06;;;;;;;2.72;2.28;;;28.30;59.40;;;;;;5070135;28;20107;-72
2022/08/16 07:15:34;;;;;;;1.55;1.45;;;28.50;57.80;;;;;;5071746;28;20044;-73
2022/08/16 07:18:00;;;;;;;1.38;1.30;;;28.60;57.10;;;;;;5071480;28;20033;-71
2022/08/16 07:20:28;;;;;;;2.58;2.00;;;28.60;57.90;;;;;;5071805;28;20389;-72
2022/08/16 07:22:56;;;;;;;3.85;2.17;;;28.40;57.40;;;;;;5070008;28;20029;-69
2022/08/16 07:25:39;;;;;;;2.45;2.25;;;28.50;57.80;;;;;;5050180;28;20090;-70
2022/08/16 07:28:06;;;;;;;9.32;3.78;;;28.60;57.80;;;;;;5063080;28;20037;-70
2022/08/16 07:30:33;;;;;;;10.50;3.75;;;28.60;59.10;;;;;;5055428;28;20107;-71
2022/08/16 07:33:03;;;;;;;9.70;4.22;;;28.70;69.60;;;;;;5056879;28;20070;-69
2022/08/16 07:35:29;;;;;;;3.58;1.65;;;28.80;59.40;;;;;;5065559;28;20485;-71
2022/08/16 07:37:55;;;;;;;3.05;1.52;;;28.80;63.10;;;;;;5054508;28;20064;-71
2022/08/16 07:40:47;;;;;;;2.83;1.67;;;29.00;67.10;;;;;;5049856;28;20168;-68
2022/08/16 07:43:14;;;;;;;25.65;4.57;;;29.00;64.30;;;;;;5033272;28;20301;-68
2022/08/16 07:45:40;;;;;;;17.40;5.85;;;29.10;64.30;;;;;;5016370;28;20049;-70
2022/08/16 07:48:06;;;;;;;5.45;2.78;;;29.10;66.40;;;;;;5029738;28;20045;-68
2022/08/16 07:50:35;;;;;;;16.15;3.42;;;29.10;60.00;;;;;;5013451;28;20064;-68
2022/08/16 07:53:01;;;;;;;35.63;9.13;;;29.00;59.20;;;;;;5029445;28;20521;-69
2022/08/16 07:55:27;;;;;;;18.45;6.00;;;29.20;60.90;;;;;;5033181;28;20045;-69
2022/08/16 07:57:53;;;;;;;41.72;12.23;;;29.20;60.20;;;;;;5033637;28;20053;-70
2022/08/16 08:00:19;;;;;;;53.17;15.57;;;29.10;59.50;;;;;;5011024;28;20038;-71
2022/08/16 08:02:49;;;;;;;33.00;6.82;;;29.00;60.40;;;;;;5007438;28;20032;-71
2022/08/16 08:05:23;;;;;;;29.90;8.70;;;29.10;59.30;;;;;;5011902;28;20096;-69
2022/08/16 08:07:52;;;;;;;10.10;4.85;;;29.00;65.70;;;;;;5012877;28;20118;-69
2022/08/16 08:10:19;;;;;;;11.85;4.63;;;29.20;58.20;;;;;;5011878;28;20123;-70
2022/08/16 08:12:50;;;;;;;9.13;4.80;;;29.10;57.50;;;;;;5028785;28;20034;-70
2022/08/16 08:15:17;;;;;;;9.00;5.38;;;29.10;57.30;;;;;;5008268;28;20038;-69
2022/08/16 08:17:44;;;;;;;7.40;4.82;;;29.10;57.50;;;;;;5017708;28;20040;-69
2022/08/16 08:20:20;;;;;;;10.15;6.22;;;29.00;57.60;;;;;;5028183;28;20438;-69
2022/08/16 08:22:47;;;;;;;6.53;4.72;;;29.00;57.80;;;;;;5038689;28;20037;-70
2022/08/16 08:25:14;;;;;;;7.43;5.15;;;29.10;57.80;;;;;;5027824;28;20375;-69
2022/08/16 08:27:41;;;;;;;12.05;5.38;;;28.90;56.70;;;;;;5021051;28;20037;-70
2022/08/16 08:30:09;;;;;;;9.73;4.55;;;29.10;57.20;;;;;;5023422;28;20496;-70
2022/08/16 08:32:36;;;;;;;5.22;4.28;;;29.00;57.10;;;;;;5023779;28;20045;-70
2022/08/16 08:35:04;;;;;;;13.52;6.32;;;29.00;56.80;;;;;;5027680;28;20046;-70
2022/08/16 08:37:36;;;;;;;15.75;7.03;;;28.90;56.00;;;;;;5035208;28;20037;-71
2022/08/16 08:40:06;;;;;;;;;;;29.00;57.00;;;;;;5016239;28;20544;-70
2022/08/16 08:42:33;;;;;;;11.25;6.82;;;28.90;56.80;;;;;;5030411;28;20602;-69
2022/08/16 08:45:02;;;;;;;12.00;6.20;;;29.00;58.10;;;;;;5025672;28;20037;-69
2022/08/16 08:47:29;;;;;;;10.18;5.63;;;29.00;61.60;;;;;;5039254;28;20045;-71
2022/08/16 08:49:55;;;;;;;15.18;6.80;;;29.10;61.40;;;;;;5048496;28;20406;-70
2022/08/16 08:52:24;;;;;;;8.70;5.43;;;29.30;60.00;;;;;;5043060;28;20109;-70
2022/08/16 08:54:50;;;;;;;10.05;5.88;;;29.20;59.40;;;;;;5043104;28;20036;-70
2022/08/16 08:57:17;;;;;;;12.70;6.10;;;29.10;59.30;;;;;;5048975;28;20033;-69
2022/08/16 09:00:11;;;;;;;8.43;5.03;;;29.20;59.20;;;;;;5006067;28;20049;-70
2022/08/16 09:02:39;;;;;;;10.60;5.75;;;29.10;59.00;;;;;;4991838;28;20737;-70
2022/08/16 09:05:05;;;;;;;6.50;4.93;;;29.10;59.10;;;;;;4983363;28;20081;-70
2022/08/16 09:07:31;;;;;;;12.05;6.65;;;29.10;59.50;;;;;;5006072;28;20053;-71
2022/08/16 09:09:57;;;;;;;9.80;4.95;;;29.00;59.70;;;;;;4982245;28;20207;-71
2022/08/16 09:12:23;;;;;;;9.18;5.15;;;29.00;59.60;;;;;;4989504;28;20471;-71
2022/08/16 09:15:01;;;;;;;10.98;5.85;;;29.10;59.50;;;;;;4987320;28;20372;-70
2022/08/16 09:17:30;;;;;;;14.80;6.13;;;29.00;59.40;;;;;;4993473;28;20118;-70
2022/08/16 09:19:56;;;;;;;10.60;2.67;;;29.00;59.40;;;;;;5002929;28;20122;-71
2022/08/16 09:22:24;;;;;;;2.13;1.95;;;29.00;59.60;;;;;;4995849;28;20427;-71
2022/08/16 09:24:51;;;;;;;7.80;3.85;;;29.00;59.90;;;;;;5009486;28;20034;-71
2022/08/16 09:27:18;;;;;;;3.85;3.47;;;29.10;60.30;;;;;;4972209;28;20051;-71
2022/08/16 09:29:44;;;;;;;12.40;3.13;;;28.90;59.70;;;;;;4968015;28;20085;-70
2022/08/16 09:32:10;;;;;;;4.00;3.00;;;29.00;60.90;;;;;;4956211;28;20043;-70
2022/08/16 09:34:37;;;;;;;7.82;3.65;;;29.10;62.70;;;;;;4972799;28;20131;-69
2022/08/16 09:37:03;;;;;;;8.25;5.78;;;29.10;63.60;;;;;;5004495;28;20111;-71
2022/08/16 09:39:29;;;;;;;2.92;2.70;;;29.20;61.80;;;;;;5032459;28;20026;-71
2022/08/16 09:41:58;;;;;;;7.80;3.78;;;29.30;61.50;;;;;;5032140;28;20057;-70
2022/08/16 09:44:26;;;;;;;5.30;2.33;;;29.20;62.70;;;;;;5029714;28;20030;-70
2022/08/16 09:46:54;;;;;;;5.03;3.00;;;29.40;67.70;;;;;;5032883;28;20049;-70
2022/08/16 09:49:21;;;;;;;5.50;3.40;;;29.50;66.60;;;;;;5031868;28;20037;-70
2022/08/16 09:51:53;;;;;;;4.20;3.65;;;29.50;63.30;;;;;;5032316;28;20065;-69
2022/08/16 09:54:24;;;;;;;3.65;3.33;;;29.40;62.90;;;;;;5014479;28;20602;-73
2022/08/16 09:56:51;;;;;;;5.10;3.10;;;29.30;61.40;;;;;;5031995;28;20029;-70
2022/08/16 09:59:18;;;;;;;3.65;3.25;;;29.30;64.10;;;;;;5051437;28;20082;-70
2022/08/16 10:01:46;;;;;;;13.88;4.72;;;29.80;64.20;;;;;;5057506;28;20036;-70
2022/08/16 10:04:13;;;;;;;6.85;3.75;;;30.00;67.70;;;;;;5070255;28;20057;-70
2022/08/16 10:06:39;;;;;;;3.85;3.45;;;30.20;64.80;;;;;;5054586;28;20034;-70
2022/08/16 10:09:07;;;;;;;4.30;3.13;;;30.10;61.40;;;;;;5054858;28;20029;-71
2022/08/16 10:14:20;;;;;;;3.85;3.35;;;29.80;59.70;;;;;;5057146;28;20033;-70
2022/08/16 10:16:47;;;;;;;3.50;2.80;;;29.70;59.90;;;;;;5059702;28;20027;-70
2022/08/16 10:19:14;;;;;;;4.88;3.30;;;29.50;60.00;;;;;;5040790;28;20071;-69
2022/08/16 10:21:41;;;;;;;4.05;2.92;;;29.60;60.20;;;;;;5063495;28;20048;-70
2022/08/16 10:24:08;;;;;;;3.25;2.95;;;29.60;60.30;;;;;;5061788;28;20036;-70
2022/08/16 10:26:35;;;;;;;3.30;2.85;;;29.70;59.90;;;;;;5058310;28;20467;-70
2022/08/16 10:29:03;;;;;;;4.30;3.15;;;29.60;60.10;;;;;;5055599;28;20124;-69
2022/08/16 10:31:29;;;;;;;14.90;3.72;;;29.50;60.00;;;;;;5066334;28;20033;-70
2022/08/16 10:33:55;;;;;;;3.72;3.10;;;29.50;59.80;;;;;;5052652;28;20508;-70
2022/08/16 10:36:21;;;;;;;4.25;3.25;;;29.40;59.70;;;;;;5058959;28;20037;-70
2022/08/16 10:38:47;;;;;;;5.43;2.83;;;29.40;59.60;;;;;;5060381;28;20385;-70
2022/08/16 10:41:13;;;;;;;4.03;3.17;;;29.30;59.70;;;;;;5055202;28;20053;-70
2022/08/16 10:43:41;;;;;;;4.82;3.40;;;29.40;59.10;;;;;;5063215;28;20033;-70
2022/08/16 10:46:10;;;;;;;3.55;3.25;;;29.40;58.90;;;;;;5059767;28;20043;-69
2022/08/16 10:48:38;;;;;;;5.70;3.55;;;29.40;59.30;;;;;;5053494;28;20160;-70
2022/08/16 10:51:04;;;;;;;4.38;3.10;;;29.30;59.40;;;;;;5064114;28;20036;-69
2022/08/16 10:53:31;;;;;;;5.20;4.03;;;29.30;59.90;;;;;;5058727;28;20063;-70
2022/08/16 10:55:58;;;;;;;6.22;4.60;;;29.20;60.00;;;;;;5050067;28;20068;-70
2022/08/16 10:58:25;;;;;;;5.05;3.60;;;29.10;60.30;;;;;;5062597;28;20116;-71
2022/08/16 11:00:52;;;;;;;4.45;3.78;;;29.10;60.00;;;;;;5055762;28;20044;-71
2022/08/16 11:03:19;;;;;;;4.57;4.05;;;29.20;60.20;;;;;;5032319;28;20108;-70
2022/08/16 11:05:45;;;;;;;8.55;3.97;;;29.10;60.30;;;;;;5069887;28;20398;-71
2022/08/16 11:08:11;;;;;;;4.38;3.22;;;29.10;60.20;;;;;;5067407;28;20103;-70
2022/08/16 11:10:42;;;;;;;5.05;4.10;;;29.00;60.10;;;;;;5066068;28;20037;-70
2022/08/16 11:13:11;;;;;;;5.22;3.78;;;29.10;60.00;;;;;;5072865;28;20036;-70
2022/08/16 11:15:37;;;;;;;7.93;3.72;;;29.20;60.00;;;;;;5076336;28;20032;-69
2022/08/16 11:18:05;;;;;;;4.20;3.78;;;29.00;60.00;;;;;;5067919;28;20063;-70
2022/08/16 11:20:31;;;;;;;5.20;3.75;;;29.10;60.00;;;;;;5064504;28;20032;-69
2022/08/16 11:22:58;;;;;;;5.72;4.15;;;29.00;60.00;;;;;;5074023;28;20131;-69
2022/08/16 11:25:27;;;;;;;4.85;3.97;;;29.00;60.10;;;;;;5069423;28;20067;-70
2022/08/16 11:27:54;;;;;;;6.70;4.20;;;28.90;59.60;;;;;;5069838;28;20470;-70
2022/08/16 11:30:21;;;;;;;4.70;3.35;;;29.00;60.00;;;;;;5019608;28;20533;-70
2022/08/16 11:32:47;;;;;;;3.83;3.50;;;28.90;59.80;;;;;;5013490;28;20105;-69
2022/08/16 11:35:21;;;;;;;6.18;4.28;;;28.90;59.80;;;;;;5013693;28;20037;-70
2022/08/16 11:37:55;;;;;;;4.50;3.65;;;29.00;60.20;;;;;;5003563;28;20053;-70
2022/08/16 11:40:23;;;;;;;5.57;3.53;;;29.00;61.00;;;;;;5029422;28;20133;-70
2022/08/16 11:42:49;;;;;;;4.70;3.80;;;29.00;60.80;;;;;;5022696;28;20049;-70
2022/08/16 11:45:15;;;;;;;4.07;3.60;;;28.80;60.30;;;;;;5009796;28;20073;-70
2022/08/16 11:47:41;;;;;;;4.78;3.90;;;29.00;60.70;;;;;;5009747;28;20511;-71
2022/08/16 11:50:08;;;;;;;5.13;3.95;;;29.00;60.70;;;;;;5010171;28;20057;-71
2022/08/16 11:52:36;;;;;;;3.75;3.40;;;29.00;60.60;;;;;;5009726;28;20095;-71
2022/08/16 11:55:05;;;;;;;4.30;3.67;;;29.00;60.60;;;;;;5010102;28;20502;-71
2022/08/16 11:57:31;;;;;;;3.72;3.33;;;28.90;60.00;;;;;;5010036;28;20352;-70
2022/08/16 11:59:57;;;;;;;5.53;4.47;;;29.00;60.40;;;;;;5009890;28;20038;-70
2022/08/16 12:02:24;;;;;;;7.00;4.10;;;29.00;60.40;;;;;;5049228;28;20057;-70
2022/08/16 12:04:50;;;;;;;4.22;3.83;;;29.00;60.50;;;;;;5051918;28;20037;-70
2022/08/16 12:07:16;;;;;;;6.57;3.75;;;29.10;60.40;;;;;;5051975;28;20044;-70
2022/08/16 12:09:42;;;;;;;6.22;3.95;;;28.90;59.70;;;;;;5051973;28;20036;-70
2022/08/16 12:12:08;;;;;;;6.20;3.78;;;28.90;59.70;;;;;;5051789;28;20119;-70
2022/08/16 12:14:35;;;;;;;5.30;3.90;;;29.00;60.20;;;;;;5057767;28;20082;-70
2022/08/16 12:17:02;;;;;;;5.63;3.55;;;29.00;60.30;;;;;;5059909;28;20107;-70
2022/08/16 12:19:29;;;;;;;6.70;3.75;;;28.90;59.70;;;;;;5051701;28;20492;-70
2022/08/16 12:21:55;;;;;;;5.70;3.78;;;28.90;59.80;;;;;;5051592;28;20033;-70
2022/08/16 12:24:21;;;;;;;6.35;3.72;;;28.90;59.70;;;;;;5051952;28;20025;-70
2022/08/16 12:26:47;;;;;;;5.85;3.90;;;28.90;59.80;;;;;;5051940;28;20503;-70
2022/08/16 12:29:14;;;;;;;4.40;3.50;;;29.00;60.30;;;;;;5051533;28;20032;-70
2022/08/16 12:31:41;;;;;;;3.55;3.13;;;28.80;59.60;;;;;;5056993;28;20094;-70
2022/08/16 12:34:08;;;;;;;3.10;2.63;;;28.80;59.60;;;;;;5051712;28;20037;-70
2022/08/16 12:36:34;;;;;;;3.25;2.95;;;28.90;59.70;;;;;;5050425;28;20025;-70
2022/08/16 12:39:05;;;;;;;5.50;3.50;;;28.80;59.80;;;;;;5052047;28;20493;-70
2022/08/16 12:41:32;;;;;;;3.53;3.22;;;28.80;59.80;;;;;;5051179;28;20068;-70
2022/08/16 12:43:58;;;;;;;5.93;3.17;;;28.90;59.80;;;;;;5051643;28;20051;-70
2022/08/16 12:46:25;;;;;;;3.30;3.00;;;28.80;59.80;;;;;;5051217;28;20040;-69
2022/08/16 12:48:57;;;;;;;3.10;2.65;;;28.90;59.80;;;;;;5050169;28;20078;-70
2022/08/16 12:51:34;;;;;;;3.40;2.80;;;28.90;59.90;;;;;;5050960;28;20033;-70
2022/08/16 12:54:03;;;;;;;3.63;2.83;;;28.80;59.80;;;;;;5051385;28;20506;-69